Time;durP1;ratioP1;P1;durP2;ratioP2;P2;SDS_P1;SDS_P2;PMS_P1;PMS_P2;Temp;Humidity;BMP_temperature;BMP_pressure;BME280_temperature;BME280_humidity;BME280_pressure;Samples;Min_cycle;Max_cycle;Signal;HPM_P1;HPM_P2
2021/10/14 00:01:01;;;;;;;2.17;1.73;;;;;;;;;;5073899;28;20028;-35
2021/10/14 00:03:27;;;;;;;2.10;1.67;;;;;;;;;;5073821;28;20033;-35
2021/10/14 00:05:52;;;;;;;2.57;1.87;;;;;;;;;;5054209;28;20051;-35
2021/10/14 00:08:17;;;;;;;3.03;1.93;;;;;;;;;;5054009;28;20052;-35
2021/10/14 00:10:43;;;;;;;2.27;1.60;;;;;;;;;;5053796;28;20032;-35
2021/10/14 00:13:08;;;;;;;2.00;1.50;;;;;;;;;;5052690;28;20055;-35
2021/10/14 00:15:33;;;;;;;2.93;1.70;;;;;;;;;;5053653;28;20047;-35
2021/10/14 00:17:59;;;;;;;2.53;1.70;;;;;;;;;;5036639;28;20512;-35
2021/10/14 00:20:25;;;;;;;1.77;1.40;;;;;;;;;;5053696;28;20079;-35
2021/10/14 00:22:50;;;;;;;2.23;1.80;;;;;;;;;;5053603;28;20060;-35
2021/10/14 00:25:19;;;;;;;3.60;1.83;;;;;;;;;;5053630;28;20383;-35
2021/10/14 00:27:45;;;;;;;2.05;1.88;;;;;;;;;;5067235;28;20136;-35
2021/10/14 00:30:10;;;;;;;2.10;1.53;;;;;;;;;;5055426;28;20469;-35
2021/10/14 00:32:35;;;;;;;2.60;1.73;;;;;;;;;;5073275;28;20036;-35
2021/10/14 00:35:01;;;;;;;2.17;1.57;;;;;;;;;;5073392;28;20032;-35
2021/10/14 00:37:26;;;;;;;2.50;1.60;;;;;;;;;;5061684;28;20404;-35
2021/10/14 00:39:51;;;;;;;1.97;1.60;;;;;;;;;;5058729;28;20063;-35
2021/10/14 00:42:17;;;;;;;2.38;1.52;;;;;;;;;;5055258;28;20474;-35
2021/10/14 00:44:46;;;;;;;3.00;2.07;;;;;;;;;;5073193;28;20031;-34
2021/10/14 00:47:14;;;;;;;2.67;1.65;;;;;;;;;;5071501;28;20020;-34
2021/10/14 00:49:40;;;;;;;2.30;1.88;;;;;;;;;;5072914;28;20028;-35
2021/10/14 00:52:05;;;;;;;2.17;1.70;;;;;;;;;;5067865;28;20028;-35
2021/10/14 00:54:30;;;;;;;2.70;1.70;;;;;;;;;;5073063;28;20184;-35
2021/10/14 00:56:56;;;;;;;1.70;1.60;;;;;;;;;;5071389;28;20525;-35
2021/10/14 00:59:21;;;;;;;2.30;1.60;;;;;;;;;;5054967;28;20099;-35
2021/10/14 01:01:47;;;;;;;2.97;1.80;;;;;;;;;;5047838;28;20047;-35
2021/10/14 01:04:12;;;;;;;1.90;1.53;;;;;;;;;;5052761;28;20029;-35
2021/10/14 01:06:37;;;;;;;1.92;1.67;;;;;;;;;;5059030;28;20032;-35
2021/10/14 01:09:03;;;;;;;2.42;1.60;;;;;;;;;;5072098;28;20041;-35
2021/10/14 01:11:28;;;;;;;2.67;1.70;;;;;;;;;;5072698;28;20066;-35
2021/10/14 01:13:54;;;;;;;3.50;1.60;;;;;;;;;;5072613;28;20386;-35
2021/10/14 01:16:19;;;;;;;1.92;1.67;;;;;;;;;;5071079;28;20029;-35
2021/10/14 01:18:44;;;;;;;3.20;1.90;;;;;;;;;;5072615;28;20028;-35
2021/10/14 01:21:10;;;;;;;1.60;1.50;;;;;;;;;;5067151;28;20020;-35
2021/10/14 01:23:35;;;;;;;2.05;1.70;;;;;;;;;;5034791;28;20029;-35
2021/10/14 01:26:02;;;;;;;2.92;1.52;;;;;;;;;;5052978;28;20025;-35
2021/10/14 01:28:27;;;;;;;2.28;1.50;;;;;;;;;;5053364;28;20482;-35
2021/10/14 01:30:53;;;;;;;2.42;2.03;;;;;;;;;;5052041;28;20098;-35
2021/10/14 01:33:18;;;;;;;1.77;1.60;;;;;;;;;;5065653;28;20083;-35
2021/10/14 01:35:44;;;;;;;3.00;1.40;;;;;;;;;;5052515;28;20491;-35
2021/10/14 01:38:09;;;;;;;2.03;1.50;;;;;;;;;;5053395;28;20029;-35
2021/10/14 01:40:34;;;;;;;2.00;1.80;;;;;;;;;;5067429;28;20030;-35
2021/10/14 01:43:00;;;;;;;2.47;1.60;;;;;;;;;;5072152;28;20031;-35
2021/10/14 01:45:25;;;;;;;2.70;1.50;;;;;;;;;;5070118;28;20029;-35
2021/10/14 01:47:50;;;;;;;1.45;1.35;;;;;;;;;;5070229;28;20025;-34
2021/10/14 01:50:16;;;;;;;2.80;1.73;;;;;;;;;;5071921;28;20035;-35
2021/10/14 01:52:41;;;;;;;2.45;1.67;;;;;;;;;;5071990;28;20024;-35
2021/10/14 01:55:07;;;;;;;3.55;1.60;;;;;;;;;;5060410;28;20032;-35
2021/10/14 01:57:32;;;;;;;1.73;1.63;;;;;;;;;;5034848;28;20039;-35
2021/10/14 01:59:57;;;;;;;2.58;1.70;;;;;;;;;;5052592;28;20033;-35
2021/10/14 02:02:23;;;;;;;3.27;1.63;;;;;;;;;;5051672;28;20115;-35
2021/10/14 02:04:48;;;;;;;3.42;1.40;;;;;;;;;;5043668;28;20120;-35
2021/10/14 02:07:13;;;;;;;1.98;1.63;;;;;;;;;;5051677;28;20024;-35
2021/10/14 02:09:39;;;;;;;2.75;1.83;;;;;;;;;;5034367;28;20530;-35
2021/10/14 02:12:04;;;;;;;3.22;1.92;;;;;;;;;;5051556;28;20096;-35
2021/10/14 02:14:29;;;;;;;2.20;1.57;;;;;;;;;;5056773;28;20059;-35
2021/10/14 02:16:55;;;;;;;1.50;1.40;;;;;;;;;;5069802;28;20036;-35
2021/10/14 02:19:20;;;;;;;1.65;1.40;;;;;;;;;;5069978;28;20020;-35
2021/10/14 02:21:45;;;;;;;1.65;1.38;;;;;;;;;;5035728;28;20514;-35
2021/10/14 02:24:11;;;;;;;2.50;1.70;;;;;;;;;;5052502;28;20110;-34
2021/10/14 02:26:36;;;;;;;1.88;1.60;;;;;;;;;;5065366;28;20471;-35
2021/10/14 02:29:01;;;;;;;2.50;1.77;;;;;;;;;;5051506;28;20499;-35
2021/10/14 02:31:27;;;;;;;2.27;1.50;;;;;;;;;;5051829;28;20059;-35
2021/10/14 02:33:52;;;;;;;3.27;1.70;;;;;;;;;;5051237;28;20031;-35
2021/10/14 02:36:17;;;;;;;2.70;1.90;;;;;;;;;;5053381;28;20464;-34
2021/10/14 02:38:43;;;;;;;1.88;1.35;;;;;;;;;;5053206;28;20025;-35
2021/10/14 02:41:08;;;;;;;3.57;1.70;;;;;;;;;;5051393;28;20036;-35
2021/10/14 02:43:34;;;;;;;1.55;1.30;;;;;;;;;;5057641;28;20101;-35
2021/10/14 02:45:59;;;;;;;2.90;1.73;;;;;;;;;;5050984;28;20112;-35
2021/10/14 02:48:24;;;;;;;1.58;1.40;;;;;;;;;;5051049;28;20025;-35
2021/10/14 02:50:50;;;;;;;1.95;1.60;;;;;;;;;;5051908;28;20032;-35
2021/10/14 02:53:15;;;;;;;2.03;1.60;;;;;;;;;;5061839;28;20043;-35
2021/10/14 02:55:40;;;;;;;1.90;1.50;;;;;;;;;;5071150;28;20597;-34
2021/10/14 02:58:05;;;;;;;1.63;1.53;;;;;;;;;;5071405;28;20668;-35
2021/10/14 03:00:31;;;;;;;2.33;1.45;;;;;;;;;;5071358;28;20517;-35
2021/10/14 03:02:56;;;;;;;1.60;1.40;;;;;;;;;;5069700;28;20036;-35
2021/10/14 03:05:22;;;;;;;1.65;1.48;;;;;;;;;;5065000;28;20347;-34
2021/10/14 03:07:47;;;;;;;2.20;1.67;;;;;;;;;;5051115;28;20061;-35
2021/10/14 03:10:13;;;;;;;3.22;1.70;;;;;;;;;;5051177;28;20487;-34
2021/10/14 03:12:38;;;;;;;2.53;1.55;;;;;;;;;;5052085;28;20120;-35
2021/10/14 03:15:04;;;;;;;1.67;1.30;;;;;;;;;;5050924;28;20029;-35
2021/10/14 03:17:29;;;;;;;2.80;1.65;;;;;;;;;;5055997;28;20493;-36
2021/10/14 03:19:54;;;;;;;2.63;1.92;;;;;;;;;;5070956;28;20075;-35
2021/10/14 03:22:20;;;;;;;3.35;1.52;;;;;;;;;;5069356;28;20054;-35
2021/10/14 03:24:45;;;;;;;2.37;1.67;;;;;;;;;;5070700;28;20021;-35
2021/10/14 03:27:10;;;;;;;2.87;1.57;;;;;;;;;;5068444;28;20051;-35
2021/10/14 03:29:36;;;;;;;1.90;1.60;;;;;;;;;;5050707;28;20082;-35
2021/10/14 03:32:01;;;;;;;1.58;1.40;;;;;;;;;;5057026;28;20025;-35
2021/10/14 03:34:26;;;;;;;1.70;1.33;;;;;;;;;;5069059;28;20036;-35
2021/10/14 03:36:52;;;;;;;3.55;1.73;;;;;;;;;;5070625;28;20086;-35
2021/10/14 03:39:17;;;;;;;1.98;1.75;;;;;;;;;;5058891;28;20111;-34
2021/10/14 03:41:42;;;;;;;2.30;1.50;;;;;;;;;;5054914;28;20092;-34
2021/10/14 03:44:08;;;;;;;2.38;1.98;;;;;;;;;;5050578;28;20025;-35
2021/10/14 03:46:33;;;;;;;1.97;1.80;;;;;;;;;;5050579;28;20458;-35
2021/10/14 03:48:58;;;;;;;1.50;1.40;;;;;;;;;;5053115;28;20040;-35
2021/10/14 03:51:24;;;;;;;2.28;2.05;;;;;;;;;;5054181;28;20025;-34
2021/10/14 03:53:49;;;;;;;1.60;1.17;;;;;;;;;;5054232;28;20025;-34
2021/10/14 03:56:15;;;;;;;2.80;1.50;;;;;;;;;;5055366;28;20021;-34
2021/10/14 03:58:40;;;;;;;1.37;1.27;;;;;;;;;;5074411;28;20024;-35
2021/10/14 04:01:05;;;;;;;2.65;1.77;;;;;;;;;;5074137;28;20453;-35
2021/10/14 04:03:31;;;;;;;1.97;1.50;;;;;;;;;;5073798;28;20024;-34
2021/10/14 04:05:56;;;;;;;3.08;1.27;;;;;;;;;;5073857;28;20052;-35
2021/10/14 04:08:22;;;;;;;1.73;1.33;;;;;;;;;;5073519;28;20507;-35
2021/10/14 04:10:47;;;;;;;1.55;1.40;;;;;;;;;;5073720;28;20038;-34
2021/10/14 04:13:12;;;;;;;1.60;1.50;;;;;;;;;;5073775;28;20086;-34
2021/10/14 04:15:37;;;;;;;1.80;1.30;;;;;;;;;;5073570;28;20029;-34
2021/10/14 04:18:03;;;;;;;1.73;1.50;;;;;;;;;;5073549;28;20386;-35
2021/10/14 04:20:28;;;;;;;1.70;1.60;;;;;;;;;;5073675;28;20389;-34
2021/10/14 04:22:54;;;;;;;1.80;1.65;;;;;;;;;;5073554;28;20024;-34
2021/10/14 04:25:20;;;;;;;1.83;1.48;;;;;;;;;;5073436;28;20028;-34
2021/10/14 04:27:45;;;;;;;2.83;1.50;;;;;;;;;;5073180;28;20036;-35
2021/10/14 04:30:11;;;;;;;1.55;1.40;;;;;;;;;;5073467;28;20024;-35
2021/10/14 04:32:36;;;;;;;1.70;1.40;;;;;;;;;;5073647;28;20203;-35
2021/10/14 04:35:02;;;;;;;2.53;1.43;;;;;;;;;;5073407;28;20482;-35
2021/10/14 04:37:27;;;;;;;2.15;1.60;;;;;;;;;;5073190;28;20036;-34
2021/10/14 04:39:53;;;;;;;1.40;1.30;;;;;;;;;;5073336;28;20021;-35
2021/10/14 04:42:18;;;;;;;3.13;1.50;;;;;;;;;;5073347;28;20028;-35
2021/10/14 04:44:43;;;;;;;2.05;1.40;;;;;;;;;;5073452;28;20411;-34
2021/10/14 04:47:09;;;;;;;2.47;1.15;;;;;;;;;;5073133;28;20039;-34
2021/10/14 04:49:34;;;;;;;1.50;1.40;;;;;;;;;;5073125;28;20025;-34
2021/10/14 04:52:00;;;;;;;1.75;1.58;;;;;;;;;;5073062;28;20389;-34
2021/10/14 04:54:25;;;;;;;2.85;1.50;;;;;;;;;;5054857;28;20124;-34
2021/10/14 04:56:51;;;;;;;2.67;1.70;;;;;;;;;;5073022;28;20527;-35
2021/10/14 04:59:16;;;;;;;3.15;1.40;;;;;;;;;;5072356;28;20020;-35
2021/10/14 05:01:41;;;;;;;1.73;1.47;;;;;;;;;;5072906;28;20054;-35
2021/10/14 05:04:07;;;;;;;3.40;1.25;;;;;;;;;;5072751;28;20032;-34
2021/10/14 05:06:32;;;;;;;1.40;1.30;;;;;;;;;;5073157;28;20020;-35
2021/10/14 05:08:58;;;;;;;4.20;1.40;;;;;;;;;;5069587;22;20060;-39
2021/10/14 05:11:23;;;;;;;1.92;1.50;;;;;;;;;;5032814;28;20030;-41
2021/10/14 05:13:48;;;;;;;1.77;1.40;;;;;;;;;;5033096;28;20029;-40
2021/10/14 05:16:13;;;;;;;1.93;1.53;;;;;;;;;;5032986;28;20436;-40
2021/10/14 05:18:39;;;;;;;1.98;1.52;;;;;;;;;;5033986;28;20028;-40
2021/10/14 05:21:04;;;;;;;1.40;1.30;;;;;;;;;;5032542;28;20028;-41
2021/10/14 05:23:29;;;;;;;1.90;1.50;;;;;;;;;;5014860;28;20112;-39
2021/10/14 05:25:55;;;;;;;1.83;1.40;;;;;;;;;;5032750;28;20057;-38
2021/10/14 05:28:21;;;;;;;1.77;1.42;;;;;;;;;;5014684;28;20029;-40
2021/10/14 05:30:47;;;;;;;1.50;1.40;;;;;;;;;;5032339;28;20037;-40
2021/10/14 05:33:12;;;;;;;2.17;1.73;;;;;;;;;;5032503;28;20270;-39
2021/10/14 05:35:38;;;;;;;2.50;1.60;;;;;;;;;;5032612;28;20022;-38
2021/10/14 05:38:03;;;;;;;1.40;1.30;;;;;;;;;;5032232;28;20550;-39
2021/10/14 05:40:29;;;;;;;1.98;1.20;;;;;;;;;;5032158;28;20021;-40
2021/10/14 05:42:54;;;;;;;2.55;1.45;;;;;;;;;;5032435;28;20364;-40
2021/10/14 05:45:20;;;;;;;1.70;1.30;;;;;;;;;;5032234;28;20498;-42
2021/10/14 05:47:45;;;;;;;1.98;1.35;;;;;;;;;;5030985;28;20464;-40
2021/10/14 05:50:10;;;;;;;1.70;1.50;;;;;;;;;;5032331;28;20029;-38
2021/10/14 05:52:36;;;;;;;3.05;1.60;;;;;;;;;;5014325;28;20079;-40
2021/10/14 05:55:01;;;;;;;1.53;1.40;;;;;;;;;;5014185;28;20064;-38
2021/10/14 05:57:26;;;;;;;3.33;1.33;;;;;;;;;;5014531;28;20120;-41
2021/10/14 05:59:52;;;;;;;1.73;1.30;;;;;;;;;;5014392;28;20025;-41
2021/10/14 06:02:17;;;;;;;3.28;1.70;;;;;;;;;;5031948;28;20035;-42
2021/10/14 06:04:43;;;;;;;1.80;1.43;;;;;;;;;;5014294;28;20061;-41
2021/10/14 06:07:08;;;;;;;1.92;1.40;;;;;;;;;;5032034;28;20075;-40
2021/10/14 06:09:33;;;;;;;2.40;1.40;;;;;;;;;;5031627;28;20049;-42
2021/10/14 06:11:58;;;;;;;3.85;1.60;;;;;;;;;;5030744;28;20037;-41
2021/10/14 06:14:24;;;;;;;1.67;1.50;;;;;;;;;;5031701;28;20029;-40
2021/10/14 06:16:49;;;;;;;3.50;1.75;;;;;;;;;;5030817;28;20483;-39
2021/10/14 06:19:15;;;;;;;2.22;1.83;;;;;;;;;;5031784;28;20025;-40
2021/10/14 06:21:40;;;;;;;1.57;1.40;;;;;;;;;;5032988;28;20022;-41
2021/10/14 06:24:05;;;;;;;2.30;1.47;;;;;;;;;;5049757;28;20032;-43
2021/10/14 06:26:31;;;;;;;1.83;1.50;;;;;;;;;;5050963;28;20108;-41
2021/10/14 06:28:56;;;;;;;2.27;1.37;;;;;;;;;;5051444;28;20032;-40
2021/10/14 06:31:21;;;;;;;2.22;1.60;;;;;;;;;;5034113;28;20121;-38
2021/10/14 06:33:47;;;;;;;2.33;1.75;;;;;;;;;;5037337;28;20491;-41
2021/10/14 06:36:12;;;;;;;2.30;1.50;;;;;;;;;;5031530;28;20631;-40
2021/10/14 06:38:37;;;;;;;2.25;1.75;;;;;;;;;;5031179;28;20025;-39
2021/10/14 06:41:03;;;;;;;3.50;1.83;;;;;;;;;;5031634;28;20494;-42
2021/10/14 06:43:28;;;;;;;1.85;1.60;;;;;;;;;;5031516;28;20100;-41
2021/10/14 06:45:54;;;;;;;1.73;1.50;;;;;;;;;;5031350;28;20116;-41
2021/10/14 06:48:19;;;;;;;1.77;1.67;;;;;;;;;;5013241;28;20028;-39
2021/10/14 06:50:46;;;;;;;2.10;1.50;;;;;;;;;;5031396;28;20463;-42
2021/10/14 06:53:11;;;;;;;;;;;;;;;;;;5031629;28;20357;-39
2021/10/14 06:55:37;;;;;;;2.00;1.63;;;;;;;;;;5013460;28;19917;-41
2021/10/14 06:58:02;;;;;;;1.77;1.60;;;;;;;;;;5030990;28;20115;-40
2021/10/14 07:00:28;;;;;;;2.58;1.75;;;;;;;;;;5030714;28;20025;-41
2021/10/14 07:02:53;;;;;;;3.50;1.90;;;;;;;;;;5031181;28;20068;-41
2021/10/14 07:05:18;;;;;;;5.70;2.50;;;;;;;;;;5030483;28;20458;-41
2021/10/14 07:07:44;;;;;;;3.20;2.00;;;;;;;;;;5031158;28;20465;-41
2021/10/14 07:10:10;;;;;;;3.03;2.03;;;;;;;;;;5030864;28;20045;-42
2021/10/14 07:12:37;;;;;;;4.30;2.08;;;;;;;;;;5031282;28;20029;-41
2021/10/14 07:15:03;;;;;;;4.40;2.20;;;;;;;;;;5031200;28;20025;-41
2021/10/14 07:17:28;;;;;;;3.78;2.00;;;;;;;;;;5031198;28;20566;-42
2021/10/14 07:19:54;;;;;;;3.35;1.75;;;;;;;;;;5030747;28;20071;-40
2021/10/14 07:22:19;;;;;;;10.23;3.03;;;;;;;;;;5031752;28;20026;-42
2021/10/14 07:24:44;;;;;;;9.33;3.53;;;;;;;;;;5041618;28;20511;-43
2021/10/14 07:27:10;;;;;;;12.75;3.20;;;;;;;;;;5044425;28;20275;-41
2021/10/14 07:29:36;;;;;;;7.63;2.78;;;;;;;;;;5041254;28;20029;-44
2021/10/14 07:32:01;;;;;;;6.70;3.30;;;;;;;;;;5024698;28;20025;-42
2021/10/14 07:34:26;;;;;;;7.67;3.67;;;;;;;;;;5038345;28;20108;-41
2021/10/14 07:36:52;;;;;;;11.20;3.60;;;;;;;;;;5035386;28;20163;-41
2021/10/14 07:39:18;;;;;;;8.50;3.30;;;;;;;;;;5033553;28;20021;-43
2021/10/14 07:41:46;;;;;;;9.40;3.53;;;;;;;;;;5033082;28;20037;-42
2021/10/14 07:44:11;;;;;;;7.45;2.72;;;;;;;;;;5034603;28;20052;-43
2021/10/14 07:46:37;;;;;;;6.97;3.10;;;;;;;;;;5034563;28;20471;-42
2021/10/14 07:49:03;;;;;;;11.25;3.30;;;;;;;;;;5034356;28;20517;-41
2021/10/14 07:51:28;;;;;;;6.50;3.07;;;;;;;;;;5034368;28;20036;-42
2021/10/14 07:53:54;;;;;;;10.60;2.83;;;;;;;;;;5015967;28;20033;-42
2021/10/14 07:56:19;;;;;;;10.60;3.27;;;;;;;;;;5034448;28;20029;-43
2021/10/14 07:58:45;;;;;;;8.90;2.97;;;;;;;;;;5033409;28;20067;-42
2021/10/14 08:01:11;;;;;;;10.18;3.05;;;;;;;;;;5030870;28;20029;-43
2021/10/14 08:03:36;;;;;;;8.97;3.20;;;;;;;;;;5026216;28;20432;-41
2021/10/14 08:06:02;;;;;;;5.37;2.97;;;;;;;;;;5029800;28;20035;-43
2021/10/14 08:08:27;;;;;;;12.38;3.30;;;;;;;;;;5035599;28;20057;-44
2021/10/14 08:10:54;;;;;;;8.13;3.37;;;;;;;;;;5014691;28;20037;-41
2021/10/14 08:13:19;;;;;;;6.40;3.03;;;;;;;;;;5032092;28;20037;-41
2021/10/14 08:15:49;;;;;;;6.87;2.90;;;;;;;;;;5032411;28;20025;-42
2021/10/14 08:18:15;;;;;;;7.38;3.00;;;;;;;;;;5036430;28;20026;-43
2021/10/14 08:20:40;;;;;;;5.03;3.00;;;;;;;;;;5033609;28;20029;-43
2021/10/14 08:23:07;;;;;;;5.93;3.00;;;;;;;;;;5053071;28;20112;-44
2021/10/14 08:25:32;;;;;;;7.28;3.65;;;;;;;;;;5053358;28;20448;-42
2021/10/14 08:27:57;;;;;;;5.55;3.10;;;;;;;;;;5053737;28;20052;-41
2021/10/14 08:30:23;;;;;;;4.70;2.87;;;;;;;;;;5052914;28;20032;-42
2021/10/14 08:32:50;;;;;;;7.30;3.17;;;;;;;;;;5051417;28;20147;-41
2021/10/14 08:35:16;;;;;;;4.85;3.15;;;;;;;;;;5031128;28;20449;-43
2021/10/14 08:37:41;;;;;;;8.50;3.10;;;;;;;;;;5031537;28;20026;-41
2021/10/14 08:40:07;;;;;;;4.28;2.67;;;;;;;;;;5031227;28;20044;-43
2021/10/14 08:42:32;;;;;;;5.40;2.92;;;;;;;;;;5031637;28;20021;-42
2021/10/14 08:45:02;;;;;;;4.90;3.17;;;;;;;;;;5031601;28;20024;-42
2021/10/14 08:47:28;;;;;;;4.93;2.72;;;;;;;;;;5033269;28;20031;-43
2021/10/14 08:49:55;;;;;;;4.43;2.50;;;;;;;;;;5015436;28;20112;-41
2021/10/14 08:52:21;;;;;;;7.38;3.10;;;;;;;;;;5033316;28;20503;-43
2021/10/14 08:54:46;;;;;;;6.70;2.47;;;;;;;;;;5033451;28;20064;-40
2021/10/14 08:57:11;;;;;;;4.17;2.70;;;;;;;;;;5014699;28;20430;-42
2021/10/14 08:59:37;;;;;;;4.80;2.83;;;;;;;;;;5033167;28;20037;-43
2021/10/14 09:02:09;;;;;;;3.57;2.47;;;;;;;;;;5033151;28;20025;-43
2021/10/14 09:04:41;;;;;;;4.80;2.92;;;;;;;;;;5020756;28;20033;-40
2021/10/14 09:07:12;;;;;;;5.00;2.63;;;;;;;;;;5014823;28;20030;-41
2021/10/14 09:09:37;;;;;;;4.68;2.80;;;;;;;;;;5031805;28;20045;-44
2021/10/14 09:12:07;;;;;;;5.53;2.40;;;;;;;;;;5035368;28;20087;-41
2021/10/14 09:14:33;;;;;;;4.40;2.58;;;;;;;;;;5045622;28;20643;-41
2021/10/14 09:16:58;;;;;;;3.43;2.63;;;;;;;;;;5031873;28;20090;-39
2021/10/14 09:19:25;;;;;;;3.27;2.43;;;;;;;;;;5030280;28;20116;-40
2021/10/14 09:21:51;;;;;;;5.05;3.00;;;;;;;;;;5031100;28;20021;-40
2021/10/14 09:24:30;;;;;;;4.47;2.78;;;;;;;;;;5023642;28;20021;-41
2021/10/14 09:26:57;;;;;;;6.35;2.50;;;;;;;;;;5025916;28;20033;-38
2021/10/14 09:29:23;;;;;;;5.43;2.80;;;;;;;;;;5030740;28;20021;-38
2021/10/14 09:31:50;;;;;;;5.97;2.58;;;;;;;;;;5013445;28;20029;-38
2021/10/14 09:34:15;;;;;;;;;;;;;;;;;;5024052;28;20055;-38
2021/10/14 09:36:41;;;;;;;5.53;2.40;;;;;;;;;;5021303;28;19913;-38
2021/10/14 09:39:07;;;;;;;8.17;2.53;;;;;;;;;;5031535;28;20025;-40
2021/10/14 09:41:42;;;;;;;4.45;2.30;;;;;;;;;;5032082;28;20029;-41
2021/10/14 09:44:13;;;;;;;7.05;3.00;;;;;;;;;;5024261;28;20379;-41
2021/10/14 09:46:43;;;;;;;5.32;2.75;;;;;;;;;;5022105;28;20112;-40
2021/10/14 09:49:15;;;;;;;3.50;2.50;;;;;;;;;;5032366;28;20104;-39
2021/10/14 09:51:41;;;;;;;5.68;3.10;;;;;;;;;;5032375;28;20044;-42
2021/10/14 09:54:06;;;;;;;5.05;2.55;;;;;;;;;;5007214;28;20100;-41
2021/10/14 09:56:32;;;;;;;5.30;2.50;;;;;;;;;;5005009;28;20491;-43
2021/10/14 09:58:59;;;;;;;4.70;2.40;;;;;;;;;;5031242;28;20136;-41
2021/10/14 10:01:24;;;;;;;;;;;;;;;;;;5014382;28;20017;-41
2021/10/14 10:03:50;;;;;;;2.63;2.40;;;;;;;;;;5006958;28;19909;-41
2021/10/14 10:06:15;;;;;;;4.43;2.67;;;;;;;;;;5023081;28;20113;-39
2021/10/14 10:08:42;;;;;;;3.53;2.10;;;;;;;;;;5031062;28;20054;-41
2021/10/14 10:11:10;;;;;;;3.88;2.30;;;;;;;;;;5031971;28;20029;-42
2021/10/14 10:13:38;;;;;;;2.65;2.20;;;;;;;;;;5030069;28;20025;-42
2021/10/14 10:16:13;;;;;;;3.50;2.70;;;;;;;;;;5016086;28;20061;-39
2021/10/14 10:18:41;;;;;;;4.57;2.22;;;;;;;;;;5031336;28;20044;-41
2021/10/14 10:21:07;;;;;;;4.38;2.22;;;;;;;;;;5031609;28;20025;-40
2021/10/14 10:23:41;;;;;;;2.65;2.20;;;;;;;;;;5030935;28;20109;-41
2021/10/14 10:26:07;;;;;;;2.80;2.20;;;;;;;;;;4997041;28;20440;-42
2021/10/14 10:28:36;;;;;;;6.13;2.90;;;;;;;;;;5011895;28;20022;-40
2021/10/14 10:31:01;;;;;;;4.30;2.60;;;;;;;;;;5011781;28;20109;-41
2021/10/14 10:33:45;;;;;;;5.20;2.30;;;;;;;;;;5011735;28;20486;-41
2021/10/14 10:36:30;;;;;;;4.47;2.55;;;;;;;;;;4999634;28;20025;-39
2021/10/14 10:38:56;;;;;;;4.22;2.40;;;;;;;;;;5009611;28;20040;-41
2021/10/14 10:41:21;;;;;;;3.57;2.27;;;;;;;;;;5031018;28;20100;-40
2021/10/14 10:43:57;;;;;;;4.47;2.50;;;;;;;;;;5021258;28;20025;-39
2021/10/14 10:46:26;;;;;;;2.55;2.00;;;;;;;;;;5021088;28;20025;-42
2021/10/14 10:48:52;;;;;;;3.10;2.00;;;;;;;;;;5031239;28;20037;-40
2021/10/14 10:51:27;;;;;;;3.70;1.93;;;;;;;;;;5028777;28;20025;-41
2021/10/14 10:53:52;;;;;;;3.17;2.60;;;;;;;;;;5020691;28;20167;-40
2021/10/14 10:56:28;;;;;;;3.17;2.40;;;;;;;;;;5022010;28;20030;-40
2021/10/14 10:58:54;;;;;;;3.17;2.13;;;;;;;;;;5036660;28;20025;-40
2021/10/14 11:01:19;;;;;;;3.58;2.35;;;;;;;;;;5037228;28;20049;-41
2021/10/14 11:03:49;;;;;;;2.47;2.10;;;;;;;;;;5033237;28;20052;-40
2021/10/14 11:06:15;;;;;;;2.33;2.10;;;;;;;;;;5026501;28;20032;-40
2021/10/14 11:08:40;;;;;;;2.50;2.30;;;;;;;;;;5059559;22;20053;-34
2021/10/14 11:11:05;;;;;;;4.13;2.27;;;;;;;;;;5034942;28;20059;-34
2021/10/14 11:13:32;;;;;;;4.00;1.83;;;;;;;;;;5034739;28;20017;-34
2021/10/14 11:15:58;;;;;;;2.97;2.30;;;;;;;;;;5022041;28;20029;-34
2021/10/14 11:18:25;;;;;;;3.08;1.92;;;;;;;;;;5037305;28;20057;-34
2021/10/14 11:21:02;;;;;;;4.05;2.33;;;;;;;;;;5055636;28;20629;-34
2021/10/14 11:23:29;;;;;;;3.25;2.25;;;;;;;;;;5039282;28;20037;-33
2021/10/14 11:26:02;;;;;;;4.47;2.35;;;;;;;;;;5011164;28;20025;-34
2021/10/14 11:28:28;;;;;;;4.78;2.35;;;;;;;;;;5037500;28;20025;-34
2021/10/14 11:30:56;;;;;;;3.73;2.00;;;;;;;;;;5017818;28;20099;-33
2021/10/14 11:33:35;;;;;;;2.78;2.17;;;;;;;;;;5037163;28;20028;-34
2021/10/14 11:36:05;;;;;;;3.47;2.15;;;;;;;;;;5021788;28;20037;-39
2021/10/14 11:38:32;;;;;;;2.28;2.00;;;;;;;;;;5034263;28;20040;-34
2021/10/14 11:40:58;;;;;;;3.10;2.47;;;;;;;;;;5036346;28;20025;-33
2021/10/14 11:43:27;;;;;;;2.50;1.93;;;;;;;;;;5036567;28;20056;-34
2021/10/14 11:45:52;;;;;;;3.63;1.88;;;;;;;;;;5036363;28;20029;-33
2021/10/14 11:48:32;;;;;;;2.97;2.00;;;;;;;;;;5034774;28;20391;-34
2021/10/14 11:51:07;;;;;;;2.35;1.88;;;;;;;;;;5017783;28;20033;-33
2021/10/14 11:53:34;;;;;;;1.77;1.65;;;;;;;;;;5036606;28;20144;-34
2021/10/14 11:56:04;;;;;;;3.80;1.97;;;;;;;;;;5036855;28;20545;-34
2021/10/14 11:58:30;;;;;;;2.55;1.90;;;;;;;;;;5036956;28;20072;-34
2021/10/14 12:00:56;;;;;;;2.57;1.70;;;;;;;;;;5018027;28;20021;-34
2021/10/14 12:03:22;;;;;;;;;;;;;;;;;;5036177;28;20076;-33
2021/10/14 12:05:47;;;;;;;1.73;1.50;;;;;;;;;;5035091;28;20035;-34
2021/10/14 12:08:13;;;;;;;3.80;1.80;;;;;;;;;;5033112;28;20427;-34
2021/10/14 12:10:41;;;;;;;3.23;1.70;;;;;;;;;;5030929;28;20124;-33
2021/10/14 12:13:06;;;;;;;3.10;1.85;;;;;;;;;;5031833;28;20026;-33
2021/10/14 12:15:33;;;;;;;4.73;1.90;;;;;;;;;;5032387;28;20034;-33
2021/10/14 12:17:58;;;;;;;3.03;2.10;;;;;;;;;;5033536;28;20029;-34
2021/10/14 12:20:25;;;;;;;3.47;1.70;;;;;;;;;;5033486;28;20075;-33
2021/10/14 12:22:50;;;;;;;3.25;1.95;;;;;;;;;;5033183;28;20044;-33
2021/10/14 12:25:22;;;;;;;3.00;2.00;;;;;;;;;;5032021;28;20108;-34
2021/10/14 12:27:49;;;;;;;2.03;1.70;;;;;;;;;;5033370;28;20049;-33
2021/10/14 12:30:20;;;;;;;2.55;1.70;;;;;;;;;;5033052;28;20026;-33
2021/10/14 12:32:46;;;;;;;3.00;2.10;;;;;;;;;;5033095;28;20041;-34
2021/10/14 12:35:12;;;;;;;4.43;1.73;;;;;;;;;;5030957;28;20121;-34
2021/10/14 12:37:38;;;;;;;3.05;1.98;;;;;;;;;;5029873;28;20029;-34
2021/10/14 12:40:21;;;;;;;4.00;1.80;;;;;;;;;;5026574;28;20029;-34
2021/10/14 12:45:34;;;;;;;2.72;1.83;;;;;;;;;;5032771;28;20028;-34
2021/10/14 12:48:14;;;;;;;2.55;1.83;;;;;;;;;;5012738;28;20441;-33
2021/10/14 12:51:39;;;;;;;1.77;1.55;;;;;;;;;;5011105;28;20057;-33
2021/10/14 12:53:59;;;;;;;3.10;1.98;;;;;;;;;;5007471;28;20112;-34
2021/10/14 12:56:34;;;;;;;3.95;2.08;;;;;;;;;;5031655;28;20028;-34
2021/10/14 12:59:03;;;;;;;2.75;1.80;;;;;;;;;;5036266;28;20033;-34
2021/10/14 13:01:28;;;;;;;2.00;1.80;;;;;;;;;;5022091;28;20033;-34
2021/10/14 13:03:54;;;;;;;2.57;1.87;;;;;;;;;;5028539;28;20079;-34
2021/10/14 13:06:19;;;;;;;4.50;1.63;;;;;;;;;;5032861;28;20018;-33
2021/10/14 13:08:46;;;;;;;2.30;1.70;;;;;;;;;;5044048;28;20031;-34
2021/10/14 13:11:12;;;;;;;;;;;;;;;;;;5034386;28;20502;-33
2021/10/14 13:13:38;;;;;;;2.50;2.03;;;;;;;;;;5013510;28;19917;-33
2021/10/14 13:16:04;;;;;;;3.25;1.90;;;;;;;;;;5046111;28;20449;-34
2021/10/14 13:18:29;;;;;;;2.50;2.00;;;;;;;;;;5051215;28;20487;-33
2021/10/14 13:20:59;;;;;;;3.10;1.87;;;;;;;;;;5024824;28;20557;-34
2021/10/14 13:23:25;;;;;;;3.42;1.88;;;;;;;;;;5022319;28;20036;-33
2021/10/14 13:25:54;;;;;;;2.07;1.90;;;;;;;;;;5032561;28;20021;-34
2021/10/14 13:28:29;;;;;;;3.03;1.65;;;;;;;;;;5032347;28;20021;-33
2021/10/14 13:30:55;;;;;;;4.30;2.20;;;;;;;;;;5037283;28;20057;-34
2021/10/14 13:33:21;;;;;;;2.13;1.90;;;;;;;;;;5028803;28;20034;-33
2021/10/14 13:35:47;;;;;;;3.08;1.90;;;;;;;;;;5031427;28;20021;-34
2021/10/14 13:38:13;;;;;;;4.07;2.28;;;;;;;;;;5024114;28;20391;-34
2021/10/14 13:40:40;;;;;;;2.13;1.80;;;;;;;;;;5031270;28;20507;-33
2021/10/14 13:43:10;;;;;;;2.55;2.20;;;;;;;;;;5011724;28;20034;-33
2021/10/14 13:45:36;;;;;;;3.75;2.25;;;;;;;;;;5013550;28;20026;-34
2021/10/14 13:48:01;;;;;;;4.20;2.73;;;;;;;;;;5032178;28;20074;-34
2021/10/14 13:50:26;;;;;;;2.77;2.40;;;;;;;;;;5033193;28;20034;-34
2021/10/14 13:52:52;;;;;;;4.07;2.57;;;;;;;;;;5023387;28;20040;-34
2021/10/14 13:55:17;;;;;;;2.30;2.10;;;;;;;;;;5029082;28;20060;-33
2021/10/14 13:57:43;;;;;;;4.63;2.17;;;;;;;;;;5033148;28;20088;-34
2021/10/14 14:00:10;;;;;;;6.00;2.50;;;;;;;;;;5035163;28;20037;-34
2021/10/14 14:02:36;;;;;;;3.63;2.10;;;;;;;;;;5032563;28;20360;-36
2021/10/14 14:05:02;;;;;;;4.40;2.22;;;;;;;;;;5013254;28;20033;-37
2021/10/14 14:07:27;;;;;;;2.27;2.00;;;;;;;;;;5028708;28;20033;-36
2021/10/14 14:09:53;;;;;;;3.90;2.13;;;;;;;;;;5013699;28;20246;-33
2021/10/14 14:12:18;;;;;;;7.60;2.10;;;;;;;;;;5033750;28;20029;-33
2021/10/14 14:14:44;;;;;;;2.90;2.17;;;;;;;;;;5027971;28;20402;-34
2021/10/14 14:17:09;;;;;;;3.13;2.07;;;;;;;;;;5035179;28;20423;-35
2021/10/14 14:19:34;;;;;;;2.97;2.13;;;;;;;;;;5030411;28;20033;-34
2021/10/14 14:22:00;;;;;;;2.87;2.10;;;;;;;;;;5031561;28;20108;-35
2021/10/14 14:24:25;;;;;;;2.87;2.13;;;;;;;;;;5029474;28;20076;-35
2021/10/14 14:26:50;;;;;;;3.23;2.10;;;;;;;;;;5020673;28;20077;-35
2021/10/14 14:29:16;;;;;;;4.80;2.20;;;;;;;;;;5013060;28;20022;-35
2021/10/14 14:31:41;;;;;;;4.93;2.07;;;;;;;;;;5015314;28;20067;-35
2021/10/14 14:34:06;;;;;;;3.97;2.17;;;;;;;;;;4994479;28;20071;-35
2021/10/14 14:36:32;;;;;;;2.30;2.10;;;;;;;;;;5016095;28;20029;-35
2021/10/14 14:38:58;;;;;;;4.50;1.97;;;;;;;;;;5007166;28;20055;-35
2021/10/14 14:41:23;;;;;;;3.00;2.00;;;;;;;;;;5015037;28;20363;-35